createdAt,value
2019-02-24T00:02:19.739Z,14.23
2019-02-24T00:04:53.863Z,10.53
2019-02-24T00:07:25.763Z,9.23
2019-02-24T00:09:57.646Z,12.03
2019-02-24T00:12:29.557Z,10.47
2019-02-24T00:15:04.376Z,12.50
2019-02-24T00:17:37.618Z,13.30
2019-02-24T00:20:10.539Z,12.80
2019-02-24T00:22:43.597Z,15.47
2019-02-24T00:25:17.854Z,11.77
2019-02-24T00:27:50.843Z,12.33
2019-02-24T00:30:24.010Z,12.03
2019-02-24T00:32:56.930Z,14.10
2019-02-24T00:35:28.787Z,15.63
2019-02-24T00:38:00.719Z,13.57
2019-02-24T00:40:33.727Z,11.67
2019-02-24T00:43:06.926Z,12.63
2019-02-24T00:45:40.186Z,11.60
2019-02-24T00:48:16.130Z,11.90
2019-02-24T00:50:48.008Z,13.67
2019-02-24T00:53:22.191Z,12.73
2019-02-24T00:55:56.651Z,10.77
2019-02-24T00:58:46.736Z,15.07
2019-02-24T01:01:19.953Z,11.70
2019-02-24T01:03:54.158Z,14.07
2019-02-24T01:06:25.991Z,13.13
2019-02-24T01:08:58.982Z,14.10
2019-02-24T01:11:31.825Z,16.27
2019-02-24T01:14:04.904Z,12.70
2019-02-24T01:16:36.748Z,15.43
2019-02-24T01:19:11.217Z,13.70
2019-02-24T01:21:45.638Z,12.27
2019-02-24T01:24:18.888Z,12.80
2019-02-24T01:26:51.825Z,12.27
2019-02-24T01:29:23.764Z,13.07
2019-02-24T01:31:56.857Z,13.70
2019-02-24T01:34:29.793Z,11.70
2019-02-24T01:37:02.994Z,13.80
2019-02-24T01:39:34.898Z,15.13
2019-02-24T01:42:08.126Z,11.40
2019-02-24T01:44:40.115Z,14.10
2019-02-24T01:47:13.038Z,12.17
2019-02-24T01:49:44.938Z,14.00
2019-02-24T01:52:16.747Z,13.87
2019-02-24T01:54:49.670Z,12.07
2019-02-24T01:57:24.065Z,12.93
2019-02-24T01:59:58.997Z,13.67
2019-02-24T02:02:31.872Z,13.10
2019-02-24T02:05:03.939Z,15.77
2019-02-24T02:07:39.902Z,12.50
2019-02-24T02:10:12.807Z,14.47
2019-02-24T02:12:45.826Z,12.17
2019-02-24T02:15:19.952Z,13.57
2019-02-24T02:17:54.572Z,11.07
2019-02-24T02:20:29.035Z,11.40
2019-02-24T02:23:02.086Z,13.43
2019-02-24T02:25:34.957Z,14.30
2019-02-24T02:28:09.362Z,11.83
2019-02-24T02:30:41.236Z,13.67
2019-02-24T02:33:15.531Z,11.63
2019-02-24T02:35:47.416Z,16.37
2019-02-24T02:38:22.159Z,14.07
2019-02-24T02:40:56.217Z,12.57
2019-02-24T02:43:29.416Z,12.57
2019-02-24T02:46:02.356Z,11.50
2019-02-24T02:48:35.663Z,11.73
2019-02-24T02:51:09.955Z,12.80
2019-02-24T02:53:42.800Z,13.43
2019-02-24T02:56:15.850Z,17.83
2019-02-24T02:58:54.156Z,13.70
2019-02-24T03:01:23.517Z,13.50
2019-02-24T03:03:57.723Z,11.20
2019-02-24T03:06:48.816Z,13.47
2019-02-24T03:09:20.682Z,14.10
2019-02-24T03:11:56.214Z,13.93
2019-02-24T03:14:30.266Z,11.87
2019-02-24T03:17:03.408Z,12.53
2019-02-24T03:19:38.218Z,11.30
2019-02-24T03:22:10.102Z,12.30
2019-02-24T03:24:43.251Z,12.70
2019-02-24T03:27:16.100Z,13.83
2019-02-24T03:29:49.213Z,12.00
2019-02-24T03:32:22.774Z,13.27
2019-02-24T03:34:55.641Z,13.17
2019-02-24T03:37:28.480Z,11.70
2019-02-24T03:40:00.418Z,11.63
2019-02-24T03:42:37.596Z,14.60
2019-02-24T03:45:09.631Z,11.50
2019-02-24T03:47:43.831Z,14.83
2019-02-24T03:50:17.716Z,12.63
2019-02-24T03:52:50.838Z,11.30
2019-02-24T03:55:22.789Z,11.23
2019-02-24T03:57:56.030Z,13.20
2019-02-24T04:00:28.914Z,11.97
2019-02-24T04:03:00.824Z,14.03
2019-02-24T04:05:32.829Z,14.70
2019-02-24T04:08:06.964Z,11.70
2019-02-24T04:10:38.945Z,14.27
2019-02-24T04:13:11.862Z,12.27
2019-02-24T04:15:43.871Z,13.67
2019-02-24T04:18:23.300Z,13.43
2019-02-24T04:20:55.247Z,12.37
2019-02-24T04:23:29.663Z,12.53
2019-02-24T04:26:03.944Z,13.10
2019-02-24T04:28:37.610Z,13.17
2019-02-24T04:31:10.524Z,10.77
2019-02-24T04:33:42.346Z,12.40
2019-02-24T04:36:16.777Z,11.70
2019-02-24T04:38:50.925Z,10.77
2019-02-24T04:41:25.664Z,11.43
2019-02-24T04:43:57.448Z,11.00
2019-02-24T04:46:30.646Z,9.80
2019-02-24T04:49:03.587Z,12.03
2019-02-24T04:51:36.435Z,11.07
2019-02-24T04:54:11.048Z,10.53
2019-02-24T04:56:44.170Z,13.53
2019-02-24T04:59:18.279Z,12.67
2019-02-24T05:01:52.674Z,12.33
2019-02-24T05:04:26.939Z,12.10
2019-02-24T05:06:58.779Z,14.87
2019-02-24T05:09:32.975Z,12.53
2019-02-24T05:12:05.003Z,13.03
2019-02-24T05:14:37.927Z,13.90
2019-02-24T05:17:10.842Z,12.17
2019-02-24T05:19:46.559Z,12.80
2019-02-24T05:22:19.736Z,12.83
2019-02-24T05:24:52.815Z,10.90
2019-02-24T05:27:28.270Z,11.83
2019-02-24T05:30:00.253Z,13.47
2019-02-24T05:32:34.861Z,11.40
2019-02-24T05:35:13.692Z,11.30
2019-02-24T05:37:46.579Z,11.07
2019-02-24T05:40:19.742Z,10.87
2019-02-24T05:42:52.551Z,11.03
2019-02-24T05:45:24.400Z,12.67
2019-02-24T05:47:57.358Z,11.27
2019-02-24T05:50:30.279Z,10.87
2019-02-24T05:53:03.163Z,12.27
2019-02-24T05:55:36.061Z,11.93
2019-02-24T05:58:09.682Z,13.33
2019-02-24T06:00:41.563Z,10.47
2019-02-24T06:03:17.362Z,14.30
2019-02-24T06:05:52.351Z,12.70
2019-02-24T06:08:26.691Z,13.60
2019-02-24T06:10:58.757Z,12.60
2019-02-24T06:13:31.374Z,13.93
2019-02-24T06:16:04.674Z,12.80
2019-02-24T06:18:39.278Z,10.87
2019-02-24T06:21:11.237Z,13.73
2019-02-24T06:23:47.522Z,12.90
2019-02-24T06:26:19.328Z,12.00
2019-02-24T06:28:52.622Z,10.87
2019-02-24T06:31:25.874Z,12.33
2019-02-24T06:33:58.874Z,12.33
2019-02-24T06:36:31.200Z,11.90
2019-02-24T06:39:03.382Z,12.03
2019-02-24T06:41:37.090Z,10.53
2019-02-24T06:44:10.367Z,11.00
2019-02-24T06:46:43.295Z,14.33
2019-02-24T06:49:15.177Z,10.53
2019-02-24T06:51:50.560Z,12.70
2019-02-24T06:54:23.389Z,11.87
2019-02-24T06:56:56.502Z,11.40
2019-02-24T06:59:28.422Z,13.07
2019-02-24T07:02:02.795Z,12.27
2019-02-24T07:04:35.643Z,10.67
2019-02-24T07:07:08.558Z,10.37
2019-02-24T07:09:42.916Z,11.03
2019-02-24T07:12:17.642Z,11.93
2019-02-24T07:14:51.743Z,14.00
2019-02-24T07:17:24.480Z,15.07
2019-02-24T07:19:57.443Z,10.57
2019-02-24T07:22:29.378Z,14.03
2019-02-24T07:25:02.796Z,14.57
2019-02-24T07:27:36.080Z,13.30
2019-02-24T07:30:09.129Z,11.67
2019-02-24T07:32:42.077Z,12.23
2019-02-24T07:35:15.128Z,11.47
2019-02-24T07:37:47.260Z,12.10
2019-02-24T07:40:19.442Z,12.83
2019-02-24T07:42:51.583Z,12.33
2019-02-24T07:45:24.963Z,12.13
2019-02-24T07:47:57.462Z,11.77
2019-02-24T07:50:30.870Z,10.57
2019-02-24T07:53:04.050Z,11.47
2019-02-24T07:55:37.188Z,12.17
2019-02-24T07:58:10.153Z,12.17
2019-02-24T08:00:42.161Z,11.87
2019-02-24T08:03:15.894Z,12.67
2019-02-24T08:05:49.075Z,9.33
2019-02-24T08:08:21.031Z,11.10
2019-02-24T08:10:53.459Z,12.70
2019-02-24T08:13:25.509Z,11.43
2019-02-24T08:15:58.824Z,10.93
2019-02-24T08:18:30.795Z,11.27
2019-02-24T08:21:03.178Z,10.77
2019-02-24T08:23:35.270Z,10.07
2019-02-24T08:26:07.445Z,10.70
2019-02-24T08:28:39.494Z,9.67
2019-02-24T08:31:13.064Z,9.77
2019-02-24T08:33:45.095Z,10.93
2019-02-24T08:36:18.270Z,10.07
2019-02-24T08:38:51.770Z,9.60
2019-02-24T08:41:23.872Z,10.93
2019-02-24T08:43:56.135Z,9.50
2019-02-24T08:46:28.488Z,11.20
2019-02-24T08:49:01.596Z,9.07
2019-02-24T08:51:34.956Z,11.10
2019-02-24T08:54:07.041Z,8.30
2019-02-24T08:56:38.966Z,10.70
2019-02-24T08:59:11.199Z,7.57
2019-02-24T09:01:44.388Z,10.17
2019-02-24T09:04:18.940Z,9.60
2019-02-24T09:06:50.880Z,8.97
2019-02-24T09:09:22.810Z,10.23
2019-02-24T09:11:54.822Z,8.80
2019-02-24T09:14:27.768Z,9.40
2019-02-24T09:16:59.744Z,8.30
2019-02-24T09:19:31.816Z,10.53
2019-02-24T09:22:03.980Z,9.57
2019-02-24T09:24:35.871Z,8.57
2019-02-24T09:27:08.814Z,9.50
2019-02-24T09:29:42.107Z,9.10
2019-02-24T09:32:16.292Z,9.27
2019-02-24T09:34:48.411Z,9.07
2019-02-24T09:37:20.457Z,10.33
2019-02-24T09:39:52.606Z,9.47
2019-02-24T09:42:25.517Z,8.23
2019-02-24T09:44:57.646Z,8.10
2019-02-24T09:47:29.847Z,9.20
2019-02-24T09:50:02.064Z,9.67
2019-02-24T09:52:34.063Z,8.57
2019-02-24T09:55:07.820Z,9.23
2019-02-24T09:57:40.123Z,9.90
2019-02-24T10:00:14.779Z,8.67
2019-02-24T10:02:46.984Z,8.73
2019-02-24T10:05:19.006Z,8.57
2019-02-24T10:07:51.292Z,10.93
2019-02-24T10:10:23.414Z,10.60
2019-02-24T10:12:55.336Z,8.37
2019-02-24T10:15:29.884Z,7.80
2019-02-24T10:18:01.881Z,8.93
2019-02-24T10:20:34.017Z,9.57
2019-02-24T10:23:06.149Z,8.93
2019-02-24T10:25:38.416Z,8.87
2019-02-24T10:28:11.906Z,8.80
2019-02-24T10:30:43.794Z,8.13
2019-02-24T10:33:18.161Z,9.17
2019-02-24T10:35:50.138Z,9.37
2019-02-24T10:38:22.045Z,9.90
2019-02-24T10:40:54.532Z,8.30
2019-02-24T10:43:26.754Z,9.10
2019-02-24T10:46:00.871Z,9.13
2019-02-24T10:48:33.927Z,8.27
2019-02-24T10:51:07.074Z,9.50
2019-02-24T10:53:40.010Z,11.53
2019-02-24T10:56:14.673Z,11.07
2019-02-24T10:58:48.081Z,11.33
2019-02-24T11:01:29.260Z,10.87
2019-02-24T11:03:55.746Z,8.40
2019-02-24T11:06:27.687Z,9.27
2019-02-24T11:08:59.849Z,9.57
2019-02-24T11:11:31.910Z,8.17
2019-02-24T11:14:05.308Z,8.43
2019-02-24T11:16:37.754Z,9.77
2019-02-24T11:19:10.437Z,10.07
2019-02-24T11:21:42.773Z,9.93
2019-02-24T11:24:14.879Z,11.07
2019-02-24T11:26:47.209Z,8.33
2019-02-24T11:29:19.318Z,9.07
2019-02-24T11:31:51.424Z,9.43
2019-02-24T11:34:24.640Z,10.43
2019-02-24T11:36:56.671Z,8.57
2019-02-24T11:39:28.996Z,8.83
2019-02-24T11:42:01.138Z,8.00
2019-02-24T11:44:34.478Z,9.20
2019-02-24T11:47:07.011Z,11.10
2019-02-24T11:49:39.049Z,8.37
2019-02-24T11:52:11.516Z,8.37
2019-02-24T11:54:43.638Z,8.73
2019-02-24T11:57:16.655Z,8.17
2019-02-24T11:59:48.598Z,8.17
2019-02-24T12:02:20.751Z,8.43
2019-02-24T12:04:52.752Z,7.97
2019-02-24T12:07:25.683Z,8.43
2019-02-24T12:09:57.937Z,8.87
2019-02-24T12:12:30.139Z,9.07
2019-02-24T12:15:02.181Z,8.20
2019-02-24T12:17:36.821Z,7.90
2019-02-24T12:20:10.696Z,9.27
2019-02-24T12:22:43.086Z,8.33
2019-02-24T12:25:15.965Z,9.20
2019-02-24T12:27:48.167Z,7.77
2019-02-24T12:30:21.358Z,7.80
2019-02-24T12:32:53.304Z,8.10
2019-02-24T12:35:25.135Z,7.10
2019-02-24T12:37:59.539Z,7.17
2019-02-24T12:40:32.869Z,7.40
2019-02-24T12:43:05.154Z,7.53
2019-02-24T12:45:37.738Z,7.57
2019-02-24T12:48:09.633Z,8.00
2019-02-24T12:50:41.587Z,7.23
2019-02-24T12:53:13.850Z,7.07
2019-02-24T12:55:47.121Z,6.57
2019-02-24T12:58:18.981Z,7.57
2019-02-24T13:00:51.156Z,6.83
2019-02-24T13:03:24.243Z,8.83
2019-02-24T13:05:57.838Z,7.63
2019-02-24T13:08:29.831Z,6.67
2019-02-24T13:11:05.910Z,6.83
2019-02-24T13:13:37.921Z,7.70
2019-02-24T13:16:13.350Z,6.97
2019-02-24T13:18:45.314Z,6.10
2019-02-24T13:21:18.622Z,5.17
2019-02-24T13:23:50.726Z,5.37
2019-02-24T13:26:23.855Z,7.03
2019-02-24T13:28:56.148Z,5.97
2019-02-24T13:31:29.792Z,5.30
2019-02-24T13:34:01.945Z,6.13
2019-02-24T13:36:34.279Z,5.13
2019-02-24T13:39:07.843Z,5.67
2019-02-24T13:41:42.845Z,6.20
2019-02-24T13:44:16.160Z,5.77
2019-02-24T13:46:48.095Z,6.03
2019-02-24T13:49:20.509Z,5.90
2019-02-24T13:51:52.739Z,7.00
2019-02-24T13:54:24.976Z,6.20
2019-02-24T13:56:57.356Z,6.93
2019-02-24T13:59:30.649Z,5.97
2019-02-24T14:02:05.250Z,5.00
2019-02-24T14:04:38.150Z,5.60
2019-02-24T14:07:11.424Z,5.30
2019-02-24T14:09:43.315Z,5.43
2019-02-24T14:12:16.593Z,5.87
2019-02-24T14:14:50.136Z,5.13
2019-02-24T14:17:22.073Z,5.57
2019-02-24T14:19:55.299Z,4.87
2019-02-24T14:22:27.751Z,5.40
2019-02-24T14:25:02.286Z,4.57
2019-02-24T14:27:34.280Z,4.23
2019-02-24T14:30:07.688Z,6.07
2019-02-24T14:32:39.903Z,4.40
2019-02-24T14:35:13.112Z,4.97
2019-02-24T14:37:46.391Z,3.83
2019-02-24T14:40:18.552Z,4.93
2019-02-24T14:42:50.569Z,5.37
2019-02-24T14:45:23.687Z,5.00
2019-02-24T14:47:56.012Z,5.77
2019-02-24T14:50:30.220Z,5.33
2019-02-24T14:53:04.335Z,5.80
2019-02-24T14:55:36.594Z,5.70
2019-02-24T14:58:10.812Z,5.13
2019-02-24T15:00:43.866Z,6.43
2019-02-24T15:03:17.353Z,5.33
2019-02-24T15:05:49.521Z,6.00
2019-02-24T15:08:22.539Z,5.43
2019-02-24T15:10:55.314Z,6.40
2019-02-24T15:13:28.321Z,5.07
2019-02-24T15:16:00.218Z,6.13
2019-02-24T15:18:32.607Z,6.07
2019-02-24T15:21:06.123Z,6.77
2019-02-24T15:23:40.027Z,7.23
2019-02-24T15:26:12.023Z,5.93
2019-02-24T15:28:44.013Z,6.10
2019-02-24T15:31:16.177Z,5.60
2019-02-24T15:33:50.357Z,5.67
2019-02-24T15:36:24.986Z,5.57
2019-02-24T15:38:58.154Z,5.43
2019-02-24T15:41:30.378Z,6.93
2019-02-24T15:44:03.954Z,5.83
2019-02-24T15:46:36.263Z,6.00
2019-02-24T15:49:09.215Z,4.87
2019-02-24T15:51:41.472Z,6.50
2019-02-24T15:54:13.630Z,6.73
2019-02-24T15:56:46.380Z,6.67
2019-02-24T15:59:19.819Z,7.07
2019-02-24T16:01:52.839Z,6.10
2019-02-24T16:04:25.092Z,6.17
2019-02-24T16:06:57.455Z,5.13
2019-02-24T16:09:31.027Z,6.60
2019-02-24T16:12:05.725Z,5.23
2019-02-24T16:14:37.787Z,6.30
2019-02-24T16:17:09.819Z,5.70
2019-02-24T16:19:42.957Z,7.77
2019-02-24T16:22:14.916Z,5.60
2019-02-24T16:24:47.942Z,5.40
2019-02-24T16:27:21.202Z,5.90
2019-02-24T16:29:53.116Z,6.10
2019-02-24T16:32:26.173Z,6.00
2019-02-24T16:34:58.457Z,5.20
2019-02-24T16:37:30.425Z,6.73
2019-02-24T16:40:02.579Z,5.17
2019-02-24T16:42:36.041Z,6.70
2019-02-24T16:45:08.989Z,7.07
2019-02-24T16:47:42.389Z,7.60
2019-02-24T16:50:16.746Z,7.13
2019-02-24T16:52:49.265Z,7.93
2019-02-24T16:55:21.394Z,10.57
2019-02-24T16:57:53.347Z,8.97
2019-02-24T17:00:25.672Z,12.13
2019-02-24T17:02:57.805Z,10.10
2019-02-24T17:05:30.990Z,9.80
2019-02-24T17:08:02.948Z,10.23
2019-02-24T17:10:37.859Z,11.40
2019-02-24T17:13:12.441Z,9.77
2019-02-24T17:15:45.544Z,7.37
2019-02-24T17:18:21.807Z,7.40
2019-02-24T17:20:55.485Z,8.20
2019-02-24T17:23:27.693Z,8.87
2019-02-24T17:26:01.236Z,9.40
2019-02-24T17:28:34.515Z,8.67
2019-02-24T17:31:07.676Z,11.10
2019-02-24T17:33:40.116Z,11.03
2019-02-24T17:36:12.086Z,8.17
2019-02-24T17:38:45.678Z,9.40
2019-02-24T17:41:18.395Z,10.77
2019-02-24T17:43:50.598Z,9.33
2019-02-24T17:46:23.720Z,8.50
2019-02-24T17:48:55.634Z,9.10
2019-02-24T17:51:28.513Z,10.47
2019-02-24T17:54:00.744Z,7.90
2019-02-24T17:56:33.931Z,11.10
2019-02-24T17:59:07.702Z,9.30
2019-02-24T18:01:41.963Z,8.27
2019-02-24T18:04:13.897Z,11.50
2019-02-24T18:06:45.987Z,9.67
2019-02-24T18:09:19.219Z,14.07
2019-02-24T18:11:52.575Z,17.27
2019-02-24T18:14:26.487Z,12.57
2019-02-24T18:16:58.485Z,16.53
2019-02-24T18:19:30.572Z,14.77
2019-02-24T18:22:02.884Z,16.83
2019-02-24T18:24:35.281Z,15.50
2019-02-24T18:27:07.423Z,15.23
2019-02-24T18:29:39.583Z,11.60
2019-02-24T18:32:11.716Z,15.67
2019-02-24T18:34:44.202Z,14.33
2019-02-24T18:37:19.747Z,19.37
2019-02-24T18:39:51.900Z,16.07
2019-02-24T18:42:23.975Z,15.70
2019-02-24T18:44:57.241Z,14.57
2019-02-24T18:47:32.217Z,14.80
2019-02-24T18:50:05.163Z,13.27
2019-02-24T18:52:38.413Z,12.33
2019-02-24T18:55:10.840Z,11.80
2019-02-24T18:57:42.995Z,12.37
2019-02-24T19:00:16.587Z,10.47
2019-02-24T19:02:49.973Z,12.07
2019-02-24T19:05:26.271Z,12.03
2019-02-24T19:08:01.055Z,10.90
2019-02-24T19:10:34.387Z,10.93
2019-02-24T19:13:06.607Z,12.20
2019-02-24T19:15:40.768Z,15.93
2019-02-24T19:18:12.209Z,11.87
2019-02-24T19:20:44.043Z,13.50
2019-02-24T19:23:16.275Z,16.13
2019-02-24T19:25:50.510Z,17.53
2019-02-24T19:28:24.067Z,15.10
2019-02-24T19:30:56.342Z,15.43
2019-02-24T19:33:28.538Z,14.17
2019-02-24T19:36:01.956Z,17.00
2019-02-24T19:38:34.307Z,17.80
2019-02-24T19:41:07.678Z,17.30
2019-02-24T19:43:39.903Z,17.30
2019-02-24T19:46:12.997Z,19.30
2019-02-24T19:48:45.433Z,17.83
2019-02-24T19:51:19.794Z,16.70
2019-02-24T19:53:52.142Z,19.63
2019-02-24T19:56:25.251Z,21.13
2019-02-24T19:58:57.205Z,18.67
2019-02-24T20:01:30.273Z,17.30
2019-02-24T20:04:04.353Z,17.33
2019-02-24T20:06:37.621Z,13.73
2019-02-24T20:09:10.008Z,13.13
2019-02-24T20:11:44.297Z,17.60
2019-02-24T20:14:16.887Z,12.93
2019-02-24T20:16:49.299Z,22.37
2019-02-24T20:19:21.362Z,16.77
2019-02-24T20:21:53.488Z,14.90
2019-02-24T20:24:26.584Z,15.47
2019-02-24T20:26:58.859Z,15.87
2019-02-24T20:29:30.925Z,14.17
2019-02-24T20:32:02.872Z,14.13
2019-02-24T20:34:36.147Z,15.50
2019-02-24T20:37:08.164Z,14.37
2019-02-24T20:39:41.815Z,14.63
2019-02-24T20:42:15.144Z,15.20
2019-02-24T20:44:47.364Z,16.37
2019-02-24T20:47:19.348Z,14.70
2019-02-24T20:49:51.939Z,14.70
2019-02-24T20:52:24.493Z,14.87
2019-02-24T20:54:57.626Z,14.30
2019-02-24T20:57:30.847Z,14.13
2019-02-24T21:00:03.005Z,16.37
2019-02-24T21:02:38.838Z,13.40
2019-02-24T21:05:10.980Z,16.40
2019-02-24T21:07:42.839Z,19.07
2019-02-24T21:10:15.231Z,19.63
2019-02-24T21:12:47.297Z,19.27
2019-02-24T21:15:19.444Z,19.63
2019-02-24T21:17:52.523Z,17.63
2019-02-24T21:20:26.159Z,20.63
2019-02-24T21:22:58.457Z,18.17
2019-02-24T21:25:30.997Z,17.80
2019-02-24T21:28:03.072Z,17.83
2019-02-24T21:30:35.283Z,16.87
2019-02-24T21:33:08.174Z,15.23
2019-02-24T21:35:40.302Z,18.13
2019-02-24T21:38:13.315Z,20.07
2019-02-24T21:40:47.303Z,16.70
2019-02-24T21:43:22.268Z,15.70
2019-02-24T21:45:54.566Z,16.93
2019-02-24T21:48:26.715Z,17.30
2019-02-24T21:50:58.927Z,17.03
2019-02-24T21:53:33.360Z,13.67
2019-02-24T21:56:05.206Z,16.87
2019-02-24T21:58:39.872Z,15.63
2019-02-24T22:01:12.027Z,15.07
2019-02-24T22:03:44.171Z,15.37
2019-02-24T22:06:16.247Z,15.27
2019-02-24T22:08:48.215Z,14.17
2019-02-24T22:11:24.361Z,15.83
2019-02-24T22:13:56.599Z,15.73
2019-02-24T22:16:28.673Z,14.33
2019-02-24T22:19:03.327Z,14.83
2019-02-24T22:21:36.331Z,14.23
2019-02-24T22:24:08.427Z,16.23
2019-02-24T22:26:40.311Z,16.47
2019-02-24T22:29:13.279Z,18.30
2019-02-24T22:31:45.370Z,18.07
2019-02-24T22:34:17.397Z,15.43
2019-02-24T22:36:51.857Z,15.57
2019-02-24T22:39:23.889Z,15.57
2019-02-24T22:41:56.643Z,13.07
2019-02-24T22:44:29.850Z,19.27
2019-02-24T22:47:02.216Z,14.70
2019-02-24T22:49:35.255Z,14.40
2019-02-24T22:52:07.251Z,16.37
2019-02-24T22:54:40.467Z,18.57
2019-02-24T22:57:12.420Z,15.43
2019-02-24T22:59:44.406Z,17.73
2019-02-24T23:02:19.134Z,18.07
2019-02-24T23:04:52.328Z,16.60
2019-02-24T23:07:27.034Z,16.07
2019-02-24T23:09:58.982Z,18.33
2019-02-24T23:12:31.341Z,22.10
2019-02-24T23:15:03.457Z,21.17
2019-02-24T23:17:36.557Z,18.70
2019-02-24T23:20:08.854Z,17.27
2019-02-24T23:22:41.251Z,15.90
2019-02-24T23:25:13.360Z,17.93
2019-02-24T23:27:45.301Z,17.37
2019-02-24T23:30:17.518Z,15.93
2019-02-24T23:32:49.643Z,16.67
2019-02-24T23:35:23.216Z,19.20
2019-02-24T23:37:56.539Z,17.77
2019-02-24T23:40:30.989Z,18.33
2019-02-24T23:43:03.027Z,16.40
2019-02-24T23:45:35.240Z,14.53
2019-02-24T23:48:07.783Z,16.47
2019-02-24T23:50:39.918Z,15.10
2019-02-24T23:53:12.175Z,17.60
2019-02-24T23:55:44.342Z,17.47
2019-02-24T23:58:17.994Z,17.47
